sensor_id;sensor_type;location;lat;lon;timestamp;P1;durP1;ratioP1;P2;durP2;ratioP2
71368;SDS011;59175;53.214;5.728;2023-02-18T00:02:12;7.03;;;0.50;;
71368;SDS011;59175;53.214;5.728;2023-02-18T00:04:38;1.17;;;0.40;;
71368;SDS011;59175;53.214;5.728;2023-02-18T00:07:03;4.27;;;0.57;;
71368;SDS011;59175;53.214;5.728;2023-02-18T00:09:28;6.37;;;1.07;;
71368;SDS011;59175;53.214;5.728;2023-02-18T00:11:53;2.00;;;0.67;;
71368;SDS011;59175;53.214;5.728;2023-02-18T00:14:19;12.90;;;0.50;;
71368;SDS011;59175;53.214;5.728;2023-02-18T00:16:44;6.70;;;1.03;;
71368;SDS011;59175;53.214;5.728;2023-02-18T00:19:11;2.45;;;0.35;;
71368;SDS011;59175;53.214;5.728;2023-02-18T00:21:37;3.40;;;0.45;;
71368;SDS011;59175;53.214;5.728;2023-02-18T00:24:03;5.97;;;0.82;;
71368;SDS011;59175;53.214;5.728;2023-02-18T00:26:28;2.35;;;0.20;;
71368;SDS011;59175;53.214;5.728;2023-02-18T00:28:54;6.73;;;0.90;;
71368;SDS011;59175;53.214;5.728;2023-02-18T00:31:20;2.58;;;0.40;;
71368;SDS011;59175;53.214;5.728;2023-02-18T00:33:46;9.02;;;1.67;;
71368;SDS011;59175;53.214;5.728;2023-02-18T00:36:13;5.90;;;1.07;;
71368;SDS011;59175;53.214;5.728;2023-02-18T00:38:38;8.07;;;1.38;;
71368;SDS011;59175;53.214;5.728;2023-02-18T00:41:04;3.07;;;0.47;;
71368;SDS011;59175;53.214;5.728;2023-02-18T00:43:29;4.83;;;0.50;;
71368;SDS011;59175;53.214;5.728;2023-02-18T00:45:54;3.22;;;0.55;;
71368;SDS011;59175;53.214;5.728;2023-02-18T00:48:19;6.03;;;0.70;;
71368;SDS011;59175;53.214;5.728;2023-02-18T00:50:45;7.28;;;0.65;;
71368;SDS011;59175;53.214;5.728;2023-02-18T00:53:11;4.05;;;0.82;;
71368;SDS011;59175;53.214;5.728;2023-02-18T00:55:39;3.97;;;0.77;;
71368;SDS011;59175;53.214;5.728;2023-02-18T00:58:04;2.72;;;1.15;;
71368;SDS011;59175;53.214;5.728;2023-02-18T01:00:29;5.93;;;0.70;;
71368;SDS011;59175;53.214;5.728;2023-02-18T01:02:55;1.77;;;0.33;;
71368;SDS011;59175;53.214;5.728;2023-02-18T01:05:20;3.73;;;0.73;;
71368;SDS011;59175;53.214;5.728;2023-02-18T01:07:45;1.90;;;0.60;;
71368;SDS011;59175;53.214;5.728;2023-02-18T01:10:11;5.63;;;0.67;;
71368;SDS011;59175;53.214;5.728;2023-02-18T01:12:36;6.80;;;0.47;;
71368;SDS011;59175;53.214;5.728;2023-02-18T01:15:02;8.60;;;0.50;;
71368;SDS011;59175;53.214;5.728;2023-02-18T01:17:27;5.43;;;1.00;;
71368;SDS011;59175;53.214;5.728;2023-02-18T01:19:53;6.90;;;1.30;;
71368;SDS011;59175;53.214;5.728;2023-02-18T01:22:18;5.93;;;0.40;;
71368;SDS011;59175;53.214;5.728;2023-02-18T01:24:43;0.70;;;0.10;;
71368;SDS011;59175;53.214;5.728;2023-02-18T01:27:08;9.00;;;0.83;;
71368;SDS011;59175;53.214;5.728;2023-02-18T01:29:33;4.33;;;0.80;;
71368;SDS011;59175;53.214;5.728;2023-02-18T01:31:59;6.00;;;1.33;;
71368;SDS011;59175;53.214;5.728;2023-02-18T01:34:25;1.50;;;0.30;;
71368;SDS011;59175;53.214;5.728;2023-02-18T01:36:50;4.37;;;1.60;;
71368;SDS011;59175;53.214;5.728;2023-02-18T01:39:15;2.73;;;0.40;;
71368;SDS011;59175;53.214;5.728;2023-02-18T01:41:40;4.10;;;1.07;;
71368;SDS011;59175;53.214;5.728;2023-02-18T01:44:09;3.17;;;2.10;;
71368;SDS011;59175;53.214;5.728;2023-02-18T01:46:34;5.83;;;0.83;;
71368;SDS011;59175;53.214;5.728;2023-02-18T01:49:00;2.43;;;0.63;;
71368;SDS011;59175;53.214;5.728;2023-02-18T01:51:33;1.45;;;0.40;;
71368;SDS011;59175;53.214;5.728;2023-02-18T01:56:33;8.43;;;0.90;;
71368;SDS011;59175;53.214;5.728;2023-02-18T01:58:59;7.00;;;1.00;;
71368;SDS011;59175;53.214;5.728;2023-02-18T02:01:25;1.33;;;0.30;;
71368;SDS011;59175;53.214;5.728;2023-02-18T02:03:50;8.17;;;1.13;;
71368;SDS011;59175;53.214;5.728;2023-02-18T02:06:17;6.80;;;1.33;;
71368;SDS011;59175;53.214;5.728;2023-02-18T02:08:43;0.40;;;0.13;;
71368;SDS011;59175;53.214;5.728;2023-02-18T02:27:07;7.03;;;0.55;;
71368;SDS011;59175;53.214;5.728;2023-02-18T02:37:11;5.28;;;0.85;;
71368;SDS011;59175;53.214;5.728;2023-02-18T02:47:31;2.40;;;0.47;;
71368;SDS011;59175;53.214;5.728;2023-02-18T02:52:25;12.20;;;0.60;;
71368;SDS011;59175;53.214;5.728;2023-02-18T02:54:51;2.22;;;0.68;;
71368;SDS011;59175;53.214;5.728;2023-02-18T02:59:43;4.17;;;0.73;;
71368;SDS011;59175;53.214;5.728;2023-02-18T03:12:48;5.65;;;0.47;;
71368;SDS011;59175;53.214;5.728;2023-02-18T03:15:25;3.70;;;1.35;;
71368;SDS011;59175;53.214;5.728;2023-02-18T03:17:56;1.70;;;0.35;;
71368;SDS011;59175;53.214;5.728;2023-02-18T03:20:28;2.53;;;0.30;;
71368;SDS011;59175;53.214;5.728;2023-02-18T03:22:55;2.95;;;0.63;;
71368;SDS011;59175;53.214;5.728;2023-02-18T03:25:22;3.30;;;0.40;;
71368;SDS011;59175;53.214;5.728;2023-02-18T03:27:52;0.52;;;0.10;;
71368;SDS011;59175;53.214;5.728;2023-02-18T03:30:25;2.77;;;0.60;;
71368;SDS011;59175;53.214;5.728;2023-02-18T03:32:52;1.13;;;0.10;;
71368;SDS011;59175;53.214;5.728;2023-02-18T03:35:20;3.72;;;1.15;;
71368;SDS011;59175;53.214;5.728;2023-02-18T03:37:50;7.47;;;0.68;;
71368;SDS011;59175;53.214;5.728;2023-02-18T03:40:16;1.90;;;0.53;;
71368;SDS011;59175;53.214;5.728;2023-02-18T03:42:41;3.07;;;0.20;;
71368;SDS011;59175;53.214;5.728;2023-02-18T03:45:07;6.47;;;0.35;;
71368;SDS011;59175;53.214;5.728;2023-02-18T03:47:32;2.20;;;0.80;;
71368;SDS011;59175;53.214;5.728;2023-02-18T03:49:57;0.93;;;0.13;;
71368;SDS011;59175;53.214;5.728;2023-02-18T03:52:22;2.97;;;0.50;;
71368;SDS011;59175;53.214;5.728;2023-02-18T03:54:47;4.03;;;0.53;;
71368;SDS011;59175;53.214;5.728;2023-02-18T03:57:13;2.50;;;0.20;;
71368;SDS011;59175;53.214;5.728;2023-02-18T03:59:38;2.03;;;0.50;;
71368;SDS011;59175;53.214;5.728;2023-02-18T04:02:03;3.23;;;0.60;;
71368;SDS011;59175;53.214;5.728;2023-02-18T04:04:28;1.63;;;0.22;;
71368;SDS011;59175;53.214;5.728;2023-02-18T04:06:54;3.27;;;0.50;;
71368;SDS011;59175;53.214;5.728;2023-02-18T04:09:19;2.93;;;0.60;;
71368;SDS011;59175;53.214;5.728;2023-02-18T04:11:44;4.17;;;0.47;;
71368;SDS011;59175;53.214;5.728;2023-02-18T04:14:09;10.47;;;1.50;;
71368;SDS011;59175;53.214;5.728;2023-02-18T04:16:37;7.50;;;0.80;;
71368;SDS011;59175;53.214;5.728;2023-02-18T04:19:02;10.03;;;1.33;;
71368;SDS011;59175;53.214;5.728;2023-02-18T04:21:27;6.67;;;1.00;;
71368;SDS011;59175;53.214;5.728;2023-02-18T04:23:52;5.53;;;1.13;;
71368;SDS011;59175;53.214;5.728;2023-02-18T04:26:18;3.73;;;1.20;;
71368;SDS011;59175;53.214;5.728;2023-02-18T04:28:43;6.83;;;0.80;;
71368;SDS011;59175;53.214;5.728;2023-02-18T04:31:08;4.13;;;1.37;;
71368;SDS011;59175;53.214;5.728;2023-02-18T04:33:33;4.13;;;0.83;;
71368;SDS011;59175;53.214;5.728;2023-02-18T04:35:58;7.47;;;1.80;;
71368;SDS011;59175;53.214;5.728;2023-02-18T04:38:24;3.90;;;1.03;;
71368;SDS011;59175;53.214;5.728;2023-02-18T04:40:49;6.73;;;1.67;;
71368;SDS011;59175;53.214;5.728;2023-02-18T04:43:14;7.93;;;2.10;;
71368;SDS011;59175;53.214;5.728;2023-02-18T04:45:39;6.83;;;2.07;;
71368;SDS011;59175;53.214;5.728;2023-02-18T04:48:05;5.87;;;1.80;;
71368;SDS011;59175;53.214;5.728;2023-02-18T04:50:30;5.77;;;2.03;;
71368;SDS011;59175;53.214;5.728;2023-02-18T04:52:55;17.00;;;2.27;;
71368;SDS011;59175;53.214;5.728;2023-02-18T04:55:20;7.07;;;1.93;;
71368;SDS011;59175;53.214;5.728;2023-02-18T04:57:46;10.80;;;2.90;;
71368;SDS011;59175;53.214;5.728;2023-02-18T05:00:13;11.83;;;2.63;;
71368;SDS011;59175;53.214;5.728;2023-02-18T05:02:39;9.23;;;1.60;;
71368;SDS011;59175;53.214;5.728;2023-02-18T05:05:04;12.37;;;2.53;;
71368;SDS011;59175;53.214;5.728;2023-02-18T05:07:29;7.23;;;2.70;;
71368;SDS011;59175;53.214;5.728;2023-02-18T05:09:54;9.70;;;2.67;;
71368;SDS011;59175;53.214;5.728;2023-02-18T05:12:20;4.80;;;1.60;;
71368;SDS011;59175;53.214;5.728;2023-02-18T05:14:45;8.93;;;3.00;;
71368;SDS011;59175;53.214;5.728;2023-02-18T05:17:10;9.53;;;3.00;;
71368;SDS011;59175;53.214;5.728;2023-02-18T05:19:35;7.17;;;2.63;;
71368;SDS011;59175;53.214;5.728;2023-02-18T05:22:01;5.13;;;2.40;;
71368;SDS011;59175;53.214;5.728;2023-02-18T05:24:26;8.17;;;2.30;;
71368;SDS011;59175;53.214;5.728;2023-02-18T05:26:51;11.77;;;2.77;;
71368;SDS011;59175;53.214;5.728;2023-02-18T05:29:16;6.73;;;2.83;;
71368;SDS011;59175;53.214;5.728;2023-02-18T05:31:41;6.73;;;3.20;;
71368;SDS011;59175;53.214;5.728;2023-02-18T05:34:07;5.83;;;2.03;;
71368;SDS011;59175;53.214;5.728;2023-02-18T05:36:32;5.90;;;2.17;;
71368;SDS011;59175;53.214;5.728;2023-02-18T05:38:57;7.00;;;2.73;;
71368;SDS011;59175;53.214;5.728;2023-02-18T05:41:23;7.30;;;2.30;;
71368;SDS011;59175;53.214;5.728;2023-02-18T05:43:48;5.13;;;1.40;;
71368;SDS011;59175;53.214;5.728;2023-02-18T05:46:32;8.75;;;2.30;;
71368;SDS011;59175;53.214;5.728;2023-02-18T05:48:57;4.57;;;1.60;;
71368;SDS011;59175;53.214;5.728;2023-02-18T05:51:22;9.40;;;2.83;;
71368;SDS011;59175;53.214;5.728;2023-02-18T05:53:48;7.10;;;2.10;;
71368;SDS011;59175;53.214;5.728;2023-02-18T05:56:13;9.67;;;2.73;;
71368;SDS011;59175;53.214;5.728;2023-02-18T05:58:38;8.77;;;2.23;;
71368;SDS011;59175;53.214;5.728;2023-02-18T06:01:03;12.07;;;3.63;;
71368;SDS011;59175;53.214;5.728;2023-02-18T06:03:28;11.33;;;3.00;;
71368;SDS011;59175;53.214;5.728;2023-02-18T06:05:54;6.53;;;1.43;;
71368;SDS011;59175;53.214;5.728;2023-02-18T06:08:19;8.00;;;2.77;;
71368;SDS011;59175;53.214;5.728;2023-02-18T06:10:44;5.43;;;1.67;;
71368;SDS011;59175;53.214;5.728;2023-02-18T06:13:09;2.97;;;0.80;;
71368;SDS011;59175;53.214;5.728;2023-02-18T06:15:35;12.80;;;5.17;;
71368;SDS011;59175;53.214;5.728;2023-02-18T06:18:00;10.50;;;4.07;;
71368;SDS011;59175;53.214;5.728;2023-02-18T06:20:25;2.43;;;0.53;;
71368;SDS011;59175;53.214;5.728;2023-02-18T06:22:50;11.63;;;3.57;;
71368;SDS011;59175;53.214;5.728;2023-02-18T06:25:15;8.80;;;2.80;;
71368;SDS011;59175;53.214;5.728;2023-02-18T06:27:41;12.80;;;5.13;;
71368;SDS011;59175;53.214;5.728;2023-02-18T06:30:06;10.40;;;2.93;;
71368;SDS011;59175;53.214;5.728;2023-02-18T06:32:31;7.23;;;1.33;;
71368;SDS011;59175;53.214;5.728;2023-02-18T06:34:57;6.63;;;1.37;;
71368;SDS011;59175;53.214;5.728;2023-02-18T06:37:22;7.40;;;2.53;;
71368;SDS011;59175;53.214;5.728;2023-02-18T06:39:47;10.73;;;1.33;;
71368;SDS011;59175;53.214;5.728;2023-02-18T06:42:12;7.73;;;2.70;;
71368;SDS011;59175;53.214;5.728;2023-02-18T06:44:37;10.93;;;3.47;;
71368;SDS011;59175;53.214;5.728;2023-02-18T06:47:02;11.50;;;3.23;;
71368;SDS011;59175;53.214;5.728;2023-02-18T06:49:28;19.93;;;3.10;;
71368;SDS011;59175;53.214;5.728;2023-02-18T06:51:54;5.63;;;1.30;;
71368;SDS011;59175;53.214;5.728;2023-02-18T06:54:19;17.40;;;3.60;;
71368;SDS011;59175;53.214;5.728;2023-02-18T06:56:44;10.10;;;3.07;;
71368;SDS011;59175;53.214;5.728;2023-02-18T06:59:10;8.47;;;2.00;;
71368;SDS011;59175;53.214;5.728;2023-02-18T07:01:35;9.50;;;1.97;;
71368;SDS011;59175;53.214;5.728;2023-02-18T07:04:01;8.20;;;1.73;;
71368;SDS011;59175;53.214;5.728;2023-02-18T07:06:26;3.90;;;0.70;;
71368;SDS011;59175;53.214;5.728;2023-02-18T07:08:51;15.27;;;2.87;;
71368;SDS011;59175;53.214;5.728;2023-02-18T07:11:16;7.00;;;1.07;;
71368;SDS011;59175;53.214;5.728;2023-02-18T07:13:41;5.57;;;1.67;;
71368;SDS011;59175;53.214;5.728;2023-02-18T07:16:07;8.33;;;1.47;;
71368;SDS011;59175;53.214;5.728;2023-02-18T07:18:32;6.60;;;1.25;;
71368;SDS011;59175;53.214;5.728;2023-02-18T07:20:57;5.70;;;1.07;;
71368;SDS011;59175;53.214;5.728;2023-02-18T07:23:22;10.90;;;2.97;;
71368;SDS011;59175;53.214;5.728;2023-02-18T07:25:48;6.40;;;1.33;;
71368;SDS011;59175;53.214;5.728;2023-02-18T07:28:13;7.30;;;1.30;;
71368;SDS011;59175;53.214;5.728;2023-02-18T07:30:38;6.37;;;1.30;;
71368;SDS011;59175;53.214;5.728;2023-02-18T07:33:04;4.27;;;1.00;;
71368;SDS011;59175;53.214;5.728;2023-02-18T07:35:30;5.75;;;0.93;;
71368;SDS011;59175;53.214;5.728;2023-02-18T07:37:55;3.73;;;1.03;;
71368;SDS011;59175;53.214;5.728;2023-02-18T07:40:21;2.88;;;0.95;;
71368;SDS011;59175;53.214;5.728;2023-02-18T07:42:47;5.83;;;2.27;;
71368;SDS011;59175;53.214;5.728;2023-02-18T07:45:12;12.27;;;1.90;;
71368;SDS011;59175;53.214;5.728;2023-02-18T07:47:38;11.80;;;1.20;;
71368;SDS011;59175;53.214;5.728;2023-02-18T07:50:03;2.47;;;0.47;;
71368;SDS011;59175;53.214;5.728;2023-02-18T07:52:29;2.33;;;0.30;;
71368;SDS011;59175;53.214;5.728;2023-02-18T07:54:54;4.27;;;1.53;;
71368;SDS011;59175;53.214;5.728;2023-02-18T07:57:19;6.73;;;1.70;;
71368;SDS011;59175;53.214;5.728;2023-02-18T07:59:44;4.00;;;0.70;;
71368;SDS011;59175;53.214;5.728;2023-02-18T08:02:14;16.97;;;0.80;;
71368;SDS011;59175;53.214;5.728;2023-02-18T08:04:41;4.05;;;0.60;;
71368;SDS011;59175;53.214;5.728;2023-02-18T08:07:06;2.67;;;0.57;;
71368;SDS011;59175;53.214;5.728;2023-02-18T08:09:31;2.37;;;0.30;;
71368;SDS011;59175;53.214;5.728;2023-02-18T08:11:56;3.10;;;0.80;;
71368;SDS011;59175;53.214;5.728;2023-02-18T08:14:22;7.43;;;0.80;;
71368;SDS011;59175;53.214;5.728;2023-02-18T08:16:47;2.03;;;0.40;;
71368;SDS011;59175;53.214;5.728;2023-02-18T08:19:12;2.85;;;0.47;;
71368;SDS011;59175;53.214;5.728;2023-02-18T08:21:38;2.03;;;0.53;;
71368;SDS011;59175;53.214;5.728;2023-02-18T08:24:03;1.85;;;0.20;;
71368;SDS011;59175;53.214;5.728;2023-02-18T08:26:28;3.03;;;1.00;;
71368;SDS011;59175;53.214;5.728;2023-02-18T08:28:53;2.70;;;0.37;;
71368;SDS011;59175;53.214;5.728;2023-02-18T08:31:23;5.40;;;0.40;;
71368;SDS011;59175;53.214;5.728;2023-02-18T08:33:49;3.30;;;0.30;;
71368;SDS011;59175;53.214;5.728;2023-02-18T08:36:14;5.38;;;0.85;;
71368;SDS011;59175;53.214;5.728;2023-02-18T08:38:42;4.10;;;1.27;;
71368;SDS011;59175;53.214;5.728;2023-02-18T08:41:10;7.00;;;0.40;;
71368;SDS011;59175;53.214;5.728;2023-02-18T08:43:35;2.30;;;0.40;;
71368;SDS011;59175;53.214;5.728;2023-02-18T08:46:00;4.03;;;0.30;;
71368;SDS011;59175;53.214;5.728;2023-02-18T08:48:26;5.40;;;0.40;;
71368;SDS011;59175;53.214;5.728;2023-02-18T08:50:51;7.30;;;0.97;;
71368;SDS011;59175;53.214;5.728;2023-02-18T08:53:16;2.77;;;0.20;;
71368;SDS011;59175;53.214;5.728;2023-02-18T08:55:42;1.33;;;0.20;;
71368;SDS011;59175;53.214;5.728;2023-02-18T08:58:07;6.80;;;0.63;;
71368;SDS011;59175;53.214;5.728;2023-02-18T09:00:32;3.50;;;0.13;;
71368;SDS011;59175;53.214;5.728;2023-02-18T09:02:58;2.07;;;0.20;;
71368;SDS011;59175;53.214;5.728;2023-02-18T09:05:23;4.23;;;0.73;;
71368;SDS011;59175;53.214;5.728;2023-02-18T09:07:48;2.27;;;0.10;;
71368;SDS011;59175;53.214;5.728;2023-02-18T09:10:13;1.40;;;0.30;;
71368;SDS011;59175;53.214;5.728;2023-02-18T09:12:38;2.90;;;0.77;;
71368;SDS011;59175;53.214;5.728;2023-02-18T09:15:04;4.77;;;0.30;;
71368;SDS011;59175;53.214;5.728;2023-02-18T09:17:29;3.93;;;0.10;;
71368;SDS011;59175;53.214;5.728;2023-02-18T09:19:54;3.95;;;0.77;;
71368;SDS011;59175;53.214;5.728;2023-02-18T09:22:20;4.00;;;1.00;;
71368;SDS011;59175;53.214;5.728;2023-02-18T09:24:45;5.80;;;0.93;;
71368;SDS011;59175;53.214;5.728;2023-02-18T09:27:10;4.17;;;0.33;;
71368;SDS011;59175;53.214;5.728;2023-02-18T09:29:37;2.40;;;0.53;;
71368;SDS011;59175;53.214;5.728;2023-02-18T09:32:02;4.53;;;0.20;;
71368;SDS011;59175;53.214;5.728;2023-02-18T09:34:28;7.50;;;1.47;;
71368;SDS011;59175;53.214;5.728;2023-02-18T09:36:53;1.57;;;0.50;;
71368;SDS011;59175;53.214;5.728;2023-02-18T09:39:19;12.93;;;0.67;;
71368;SDS011;59175;53.214;5.728;2023-02-18T09:41:49;5.10;;;0.40;;
71368;SDS011;59175;53.214;5.728;2023-02-18T09:46:42;1.30;;;0.20;;
71368;SDS011;59175;53.214;5.728;2023-02-18T09:49:15;2.30;;;0.52;;
71368;SDS011;59175;53.214;5.728;2023-02-18T09:51:41;6.70;;;0.65;;
71368;SDS011;59175;53.214;5.728;2023-02-18T09:54:16;2.90;;;0.50;;
71368;SDS011;59175;53.214;5.728;2023-02-18T09:56:42;4.43;;;1.85;;
71368;SDS011;59175;53.214;5.728;2023-02-18T09:59:10;2.33;;;0.65;;
71368;SDS011;59175;53.214;5.728;2023-02-18T10:01:37;5.78;;;0.40;;
71368;SDS011;59175;53.214;5.728;2023-02-18T10:04:06;4.10;;;0.75;;
71368;SDS011;59175;53.214;5.728;2023-02-18T10:06:35;4.30;;;0.47;;
71368;SDS011;59175;53.214;5.728;2023-02-18T10:09:01;5.43;;;0.55;;
71368;SDS011;59175;53.214;5.728;2023-02-18T10:11:32;1.10;;;0.22;;
71368;SDS011;59175;53.214;5.728;2023-02-18T10:13:59;1.52;;;0.20;;
71368;SDS011;59175;53.214;5.728;2023-02-18T10:16:25;1.27;;;0.10;;
71368;SDS011;59175;53.214;5.728;2023-02-18T10:18:58;1.07;;;0.27;;
71368;SDS011;59175;53.214;5.728;2023-02-18T10:21:25;3.42;;;0.47;;
71368;SDS011;59175;53.214;5.728;2023-02-18T10:26:19;4.35;;;0.60;;
71368;SDS011;59175;53.214;5.728;2023-02-18T10:28:45;4.73;;;0.60;;
71368;SDS011;59175;53.214;5.728;2023-02-18T10:31:12;3.77;;;0.30;;
71368;SDS011;59175;53.214;5.728;2023-02-18T10:33:45;0.80;;;0.10;;
71368;SDS011;59175;53.214;5.728;2023-02-18T10:36:16;4.72;;;0.32;;
71368;SDS011;59175;53.214;5.728;2023-02-18T10:38:51;2.38;;;0.50;;
71368;SDS011;59175;53.214;5.728;2023-02-18T10:41:25;0.50;;;0.10;;
71368;SDS011;59175;53.214;5.728;2023-02-18T10:43:56;5.07;;;0.52;;
71368;SDS011;59175;53.214;5.728;2023-02-18T10:48:59;4.00;;;0.93;;
71368;SDS011;59175;53.214;5.728;2023-02-18T10:51:31;5.32;;;0.88;;
71368;SDS011;59175;53.214;5.728;2023-02-18T10:53:57;1.10;;;0.10;;
71368;SDS011;59175;53.214;5.728;2023-02-18T10:56:37;2.30;;;0.53;;
71368;SDS011;59175;53.214;5.728;2023-02-18T10:59:21;5.63;;;0.57;;
71368;SDS011;59175;53.214;5.728;2023-02-18T11:01:57;4.45;;;1.17;;
71368;SDS011;59175;53.214;5.728;2023-02-18T11:04:36;6.07;;;0.97;;
71368;SDS011;59175;53.214;5.728;2023-02-18T11:07:05;3.25;;;0.50;;
71368;SDS011;59175;53.214;5.728;2023-02-18T11:09:47;1.63;;;0.30;;
71368;SDS011;59175;53.214;5.728;2023-02-18T11:12:17;2.88;;;0.30;;
71368;SDS011;59175;53.214;5.728;2023-02-18T11:14:45;8.45;;;0.30;;
71368;SDS011;59175;53.214;5.728;2023-02-18T11:19:42;2.58;;;0.30;;
71368;SDS011;59175;53.214;5.728;2023-02-18T11:22:15;1.83;;;0.40;;
71368;SDS011;59175;53.214;5.728;2023-02-18T11:24:43;1.25;;;0.38;;
71368;SDS011;59175;53.214;5.728;2023-02-18T11:27:23;2.35;;;0.20;;
71368;SDS011;59175;53.214;5.728;2023-02-18T11:29:50;14.95;;;0.88;;
71368;SDS011;59175;53.214;5.728;2023-02-18T11:32:16;2.13;;;0.30;;
71368;SDS011;59175;53.214;5.728;2023-02-18T11:34:42;1.63;;;0.73;;
71368;SDS011;59175;53.214;5.728;2023-02-18T11:37:09;4.00;;;1.15;;
71368;SDS011;59175;53.214;5.728;2023-02-18T11:39:34;4.50;;;0.50;;
71368;SDS011;59175;53.214;5.728;2023-02-18T11:42:01;6.93;;;0.52;;
71368;SDS011;59175;53.214;5.728;2023-02-18T11:44:28;4.47;;;0.30;;
71368;SDS011;59175;53.214;5.728;2023-02-18T11:47:05;4.38;;;0.57;;
71368;SDS011;59175;53.214;5.728;2023-02-18T11:49:32;4.28;;;0.50;;
71368;SDS011;59175;53.214;5.728;2023-02-18T11:52:04;8.68;;;1.08;;
71368;SDS011;59175;53.214;5.728;2023-02-18T11:54:33;2.28;;;0.30;;
71368;SDS011;59175;53.214;5.728;2023-02-18T11:57:03;1.87;;;0.20;;
71368;SDS011;59175;53.214;5.728;2023-02-18T11:59:33;0.63;;;0.20;;
71368;SDS011;59175;53.214;5.728;2023-02-18T12:04:41;1.52;;;0.20;;
71368;SDS011;59175;53.214;5.728;2023-02-18T12:07:27;3.97;;;0.65;;
71368;SDS011;59175;53.214;5.728;2023-02-18T12:09:59;3.40;;;0.50;;
71368;SDS011;59175;53.214;5.728;2023-02-18T12:12:31;5.85;;;0.40;;
71368;SDS011;59175;53.214;5.728;2023-02-18T12:14:58;4.25;;;0.43;;
71368;SDS011;59175;53.214;5.728;2023-02-18T12:30:30;3.30;;;0.65;;
71368;SDS011;59175;53.214;5.728;2023-02-18T12:38:53;2.35;;;0.30;;
71368;SDS011;59175;53.214;5.728;2023-02-18T12:41:39;2.22;;;0.30;;
71368;SDS011;59175;53.214;5.728;2023-02-18T12:47:04;2.40;;;0.27;;
71368;SDS011;59175;53.214;5.728;2023-02-18T12:52:16;2.00;;;0.40;;
71368;SDS011;59175;53.214;5.728;2023-02-18T13:07:26;5.73;;;0.40;;
71368;SDS011;59175;53.214;5.728;2023-02-18T13:10:03;1.88;;;0.43;;
71368;SDS011;59175;53.214;5.728;2023-02-18T13:15:19;4.90;;;0.47;;
71368;SDS011;59175;53.214;5.728;2023-02-18T13:17:46;1.75;;;0.30;;
71368;SDS011;59175;53.214;5.728;2023-02-18T13:20:17;4.80;;;0.75;;
71368;SDS011;59175;53.214;5.728;2023-02-18T13:22:44;7.80;;;0.63;;
71368;SDS011;59175;53.214;5.728;2023-02-18T13:25:14;3.75;;;0.30;;
71368;SDS011;59175;53.214;5.728;2023-02-18T13:30:27;4.68;;;1.10;;
71368;SDS011;59175;53.214;5.728;2023-02-18T13:40:41;4.80;;;0.43;;
71368;SDS011;59175;53.214;5.728;2023-02-18T13:45:41;4.53;;;0.38;;
71368;SDS011;59175;53.214;5.728;2023-02-18T13:48:24;4.17;;;0.43;;
71368;SDS011;59175;53.214;5.728;2023-02-18T13:50:50;2.38;;;0.30;;
71368;SDS011;59175;53.214;5.728;2023-02-18T13:53:20;9.32;;;1.17;;
71368;SDS011;59175;53.214;5.728;2023-02-18T13:58:15;4.20;;;0.60;;
71368;SDS011;59175;53.214;5.728;2023-02-18T14:00:44;3.43;;;0.50;;
71368;SDS011;59175;53.214;5.728;2023-02-18T14:03:31;4.55;;;1.33;;
71368;SDS011;59175;53.214;5.728;2023-02-18T14:05:57;1.88;;;0.10;;
71368;SDS011;59175;53.214;5.728;2023-02-18T14:13:54;4.38;;;0.40;;
71368;SDS011;59175;53.214;5.728;2023-02-18T14:16:19;3.70;;;0.55;;
71368;SDS011;59175;53.214;5.728;2023-02-18T14:28:39;2.28;;;0.17;;
71368;SDS011;59175;53.214;5.728;2023-02-18T14:31:16;8.60;;;0.57;;
71368;SDS011;59175;53.214;5.728;2023-02-18T14:41:21;2.97;;;0.20;;
71368;SDS011;59175;53.214;5.728;2023-02-18T14:46:35;5.78;;;0.35;;
71368;SDS011;59175;53.214;5.728;2023-02-18T14:51:32;4.15;;;0.60;;
71368;SDS011;59175;53.214;5.728;2023-02-18T14:54:01;3.75;;;0.20;;
71368;SDS011;59175;53.214;5.728;2023-02-18T14:56:28;8.63;;;0.37;;
71368;SDS011;59175;53.214;5.728;2023-02-18T14:58:55;0.63;;;0.20;;
71368;SDS011;59175;53.214;5.728;2023-02-18T15:01:23;5.38;;;0.30;;
71368;SDS011;59175;53.214;5.728;2023-02-18T15:03:49;1.95;;;0.10;;
71368;SDS011;59175;53.214;5.728;2023-02-18T15:08:46;2.47;;;0.30;;
71368;SDS011;59175;53.214;5.728;2023-02-18T15:11:11;12.33;;;1.03;;
71368;SDS011;59175;53.214;5.728;2023-02-18T15:13:39;7.35;;;0.50;;
71368;SDS011;59175;53.214;5.728;2023-02-18T15:16:08;2.38;;;0.55;;
71368;SDS011;59175;53.214;5.728;2023-02-18T15:18:41;2.38;;;1.05;;
71368;SDS011;59175;53.214;5.728;2023-02-18T15:21:08;3.42;;;0.40;;
71368;SDS011;59175;53.214;5.728;2023-02-18T15:23:34;3.35;;;1.02;;
71368;SDS011;59175;53.214;5.728;2023-02-18T15:26:00;3.43;;;0.57;;
71368;SDS011;59175;53.214;5.728;2023-02-18T15:28:27;5.47;;;0.52;;
71368;SDS011;59175;53.214;5.728;2023-02-18T15:30:57;6.03;;;0.60;;
71368;SDS011;59175;53.214;5.728;2023-02-18T15:33:22;4.78;;;0.65;;
71368;SDS011;59175;53.214;5.728;2023-02-18T15:35:47;1.50;;;0.20;;
71368;SDS011;59175;53.214;5.728;2023-02-18T15:38:14;5.70;;;0.77;;
71368;SDS011;59175;53.214;5.728;2023-02-18T15:40:40;7.82;;;0.80;;
71368;SDS011;59175;53.214;5.728;2023-02-18T15:43:05;6.40;;;0.60;;
71368;SDS011;59175;53.214;5.728;2023-02-18T15:45:43;4.00;;;0.70;;
71368;SDS011;59175;53.214;5.728;2023-02-18T15:48:22;6.40;;;0.88;;
71368;SDS011;59175;53.214;5.728;2023-02-18T15:50:50;3.80;;;0.60;;
71368;SDS011;59175;53.214;5.728;2023-02-18T15:53:15;2.20;;;0.38;;
71368;SDS011;59175;53.214;5.728;2023-02-18T15:55:42;3.83;;;0.40;;
71368;SDS011;59175;53.214;5.728;2023-02-18T15:58:23;6.35;;;0.82;;
71368;SDS011;59175;53.214;5.728;2023-02-18T16:00:52;4.00;;;0.60;;
71368;SDS011;59175;53.214;5.728;2023-02-18T16:03:22;4.07;;;0.70;;
71368;SDS011;59175;53.214;5.728;2023-02-18T16:05:48;8.65;;;0.85;;
71368;SDS011;59175;53.214;5.728;2023-02-18T16:08:24;9.95;;;0.63;;
71368;SDS011;59175;53.214;5.728;2023-02-18T16:10:54;5.38;;;0.40;;
71368;SDS011;59175;53.214;5.728;2023-02-18T16:13:20;3.47;;;0.43;;
71368;SDS011;59175;53.214;5.728;2023-02-18T16:15:46;5.05;;;1.13;;
71368;SDS011;59175;53.214;5.728;2023-02-18T16:18:22;3.33;;;0.40;;
71368;SDS011;59175;53.214;5.728;2023-02-18T16:20:56;3.83;;;0.53;;
71368;SDS011;59175;53.214;5.728;2023-02-18T16:23:25;4.25;;;0.47;;
71368;SDS011;59175;53.214;5.728;2023-02-18T16:25:51;4.07;;;0.32;;
71368;SDS011;59175;53.214;5.728;2023-02-18T16:28:21;0.90;;;0.07;;
71368;SDS011;59175;53.214;5.728;2023-02-18T16:30:48;3.78;;;0.40;;
71368;SDS011;59175;53.214;5.728;2023-02-18T16:33:13;2.80;;;0.40;;
71368;SDS011;59175;53.214;5.728;2023-02-18T16:35:38;0.20;;;0.10;;
71368;SDS011;59175;53.214;5.728;2023-02-18T16:38:04;3.83;;;0.17;;
71368;SDS011;59175;53.214;5.728;2023-02-18T16:40:33;1.38;;;0.20;;
71368;SDS011;59175;53.214;5.728;2023-02-18T16:43:08;3.92;;;0.22;;
71368;SDS011;59175;53.214;5.728;2023-02-18T16:45:38;1.13;;;0.15;;
71368;SDS011;59175;53.214;5.728;2023-02-18T16:48:05;2.55;;;0.43;;
71368;SDS011;59175;53.214;5.728;2023-02-18T16:50:30;9.20;;;0.30;;
71368;SDS011;59175;53.214;5.728;2023-02-18T16:52:56;6.45;;;0.57;;
71368;SDS011;59175;53.214;5.728;2023-02-18T16:55:22;5.30;;;0.20;;
71368;SDS011;59175;53.214;5.728;2023-02-18T16:57:47;2.88;;;0.45;;
71368;SDS011;59175;53.214;5.728;2023-02-18T17:00:13;0.97;;;0.53;;
71368;SDS011;59175;53.214;5.728;2023-02-18T17:02:39;2.97;;;0.15;;
71368;SDS011;59175;53.214;5.728;2023-02-18T17:05:04;4.30;;;0.50;;
71368;SDS011;59175;53.214;5.728;2023-02-18T17:07:29;1.40;;;0.30;;
71368;SDS011;59175;53.214;5.728;2023-02-18T17:09:56;4.07;;;0.17;;
71368;SDS011;59175;53.214;5.728;2023-02-18T17:12:22;0.40;;;0.10;;
71368;SDS011;59175;53.214;5.728;2023-02-18T17:14:47;2.47;;;0.50;;